Briefing drone pour Saint-jean-de-braye

Rechercher une autre localisation

Conditions de vol :


Nous sommes le : Lundi 12 avril 2021
Il est 04:24 UTC (06:24 LT)

Lever de soleil : 04:41 UTC (06:41 LT)
Coucher de soleil : 19:04 UTC (21:04 LT)

Météo

L'essentiel des conditions de vol

VIGILANCE MÉTÉO FRANCE - Loiret (45)
Vigilance Jaune : Neige-verglas
CARTE TEMSI
CARTES DES FRONTS
METAR de LFOJ
LFOJ 120400Z AUTO 27002KT CAVOK M02/M03 Q1027

Date d'émission: 12/04/2021
Heure d'émission: 04:00 UTC
Vent: 270° pour 2 KT (4 km/h)
Visibilité horizontale: > 10 km
Plafond : Plafond et visibilité OK (CAVOK)
Température: -2 °C
Point de rosée: -3 °C
Humidité: 93%
Pression (QNH): 1027 hPa
TAF de LFOJ
LFOJ 112000Z 1121/1221 CNL

Conditions prévues :

Heure d'émission : Bulletin éffectué le 11 à 21:00 UTC
Prévision : Valide du 11 a 21:00 UTC au 12 a 21:00 UTC
Nuages : à 0ft (0 m)
WEBCAM POUR SAINT-JEAN-DE-BRAYE

Réglementation

Voler en sécurité

CARTES AERONAUTIQUE 1/500.000
CARTES VAC (LFOJ)
SUP AIP




Chargement des AIP...
NOTAM (SAINT-JEAN-DE-BRAYE + Terrain à proximité / FIR )




Chargement des NOTAMS...
CONTACT PREFECTURE 45


Avertissement : Les données mises à disposition sont indicatives. Oxygène Drone ne pourra être tenu responsable de dégâts causés aux biens et aux personnes.